sensor_id;sensor_type;location;lat;lon;timestamp;P1;durP1;ratioP1;P2;durP2;ratioP2
22107;SDS011;11220;48.812;9.128;2023-04-09T00:01:30;1.00;;;0.90;;
22107;SDS011;11220;48.812;9.128;2023-04-09T00:03:56;0.88;;;0.80;;
22107;SDS011;11220;48.812;9.128;2023-04-09T00:06:21;0.93;;;0.90;;
22107;SDS011;11220;48.812;9.128;2023-04-09T00:08:47;0.95;;;0.90;;
22107;SDS011;11220;48.812;9.128;2023-04-09T00:11:12;0.80;;;0.73;;
22107;SDS011;11220;48.812;9.128;2023-04-09T00:13:38;0.70;;;0.70;;
22107;SDS011;11220;48.812;9.128;2023-04-09T00:16:03;0.70;;;0.70;;
22107;SDS011;11220;48.812;9.128;2023-04-09T00:18:29;0.70;;;0.70;;
22107;SDS011;11220;48.812;9.128;2023-04-09T00:20:54;0.75;;;0.70;;
22107;SDS011;11220;48.812;9.128;2023-04-09T00:23:20;0.80;;;0.80;;
22107;SDS011;11220;48.812;9.128;2023-04-09T00:25:46;1.10;;;0.70;;
22107;SDS011;11220;48.812;9.128;2023-04-09T00:28:11;0.70;;;0.70;;
22107;SDS011;11220;48.812;9.128;2023-04-09T00:30:36;0.90;;;0.90;;
22107;SDS011;11220;48.812;9.128;2023-04-09T00:33:02;0.80;;;0.80;;
22107;SDS011;11220;48.812;9.128;2023-04-09T00:35:28;0.70;;;0.63;;
22107;SDS011;11220;48.812;9.128;2023-04-09T00:37:53;0.70;;;0.70;;
22107;SDS011;11220;48.812;9.128;2023-04-09T00:40:19;0.80;;;0.80;;
22107;SDS011;11220;48.812;9.128;2023-04-09T00:42:45;0.93;;;0.90;;
22107;SDS011;11220;48.812;9.128;2023-04-09T00:45:12;0.80;;;0.80;;
22107;SDS011;11220;48.812;9.128;2023-04-09T00:47:37;0.95;;;0.80;;
22107;SDS011;11220;48.812;9.128;2023-04-09T00:50:03;0.88;;;0.70;;
22107;SDS011;11220;48.812;9.128;2023-04-09T00:52:29;0.60;;;0.60;;
22107;SDS011;11220;48.812;9.128;2023-04-09T00:54:55;0.70;;;0.70;;
22107;SDS011;11220;48.812;9.128;2023-04-09T00:57:22;1.10;;;0.63;;
22107;SDS011;11220;48.812;9.128;2023-04-09T00:59:48;0.73;;;0.73;;
22107;SDS011;11220;48.812;9.128;2023-04-09T01:02:14;0.70;;;0.70;;
22107;SDS011;11220;48.812;9.128;2023-04-09T01:04:40;0.75;;;0.70;;
22107;SDS011;11220;48.812;9.128;2023-04-09T01:07:11;1.13;;;0.90;;
22107;SDS011;11220;48.812;9.128;2023-04-09T01:10:31;0.60;;;0.60;;
22107;SDS011;11220;48.812;9.128;2023-04-09T01:15:43;0.80;;;0.80;;
22107;SDS011;11220;48.812;9.128;2023-04-09T01:20:57;0.75;;;0.75;;
22107;SDS011;11220;48.812;9.128;2023-04-09T01:23:38;0.80;;;0.75;;
22107;SDS011;11220;48.812;9.128;2023-04-09T01:26:20;0.60;;;0.60;;
22107;SDS011;11220;48.812;9.128;2023-04-09T01:31:17;1.05;;;0.80;;
22107;SDS011;11220;48.812;9.128;2023-04-09T01:33:43;0.77;;;0.77;;
22107;SDS011;11220;48.812;9.128;2023-04-09T01:36:09;0.70;;;0.70;;
22107;SDS011;11220;48.812;9.128;2023-04-09T01:38:36;0.68;;;0.60;;
22107;SDS011;11220;48.812;9.128;2023-04-09T01:41:05;0.70;;;0.70;;
22107;SDS011;11220;48.812;9.128;2023-04-09T01:43:32;0.60;;;0.60;;
22107;SDS011;11220;48.812;9.128;2023-04-09T01:45:59;0.80;;;0.80;;
22107;SDS011;11220;48.812;9.128;2023-04-09T01:48:26;0.73;;;0.70;;
22107;SDS011;11220;48.812;9.128;2023-04-09T01:50:54;0.70;;;0.70;;
22107;SDS011;11220;48.812;9.128;2023-04-09T01:53:20;0.60;;;0.52;;
22107;SDS011;11220;48.812;9.128;2023-04-09T01:55:46;0.88;;;0.65;;
22107;SDS011;11220;48.812;9.128;2023-04-09T01:58:12;0.63;;;0.63;;
22107;SDS011;11220;48.812;9.128;2023-04-09T02:00:38;0.70;;;0.70;;
22107;SDS011;11220;48.812;9.128;2023-04-09T02:03:20;0.60;;;0.60;;
22107;SDS011;11220;48.812;9.128;2023-04-09T02:06:01;0.82;;;0.70;;
22107;SDS011;11220;48.812;9.128;2023-04-09T02:08:35;0.60;;;0.60;;
22107;SDS011;11220;48.812;9.128;2023-04-09T02:11:03;0.63;;;0.63;;
22107;SDS011;11220;48.812;9.128;2023-04-09T02:13:32;0.70;;;0.68;;
22107;SDS011;11220;48.812;9.128;2023-04-09T02:15:59;0.60;;;0.55;;
22107;SDS011;11220;48.812;9.128;2023-04-09T02:18:27;0.70;;;0.70;;
22107;SDS011;11220;48.812;9.128;2023-04-09T02:20:54;0.60;;;0.60;;
22107;SDS011;11220;48.812;9.128;2023-04-09T02:23:21;0.60;;;0.60;;
22107;SDS011;11220;48.812;9.128;2023-04-09T02:25:47;0.70;;;0.70;;
22107;SDS011;11220;48.812;9.128;2023-04-09T02:28:12;0.50;;;0.50;;
22107;SDS011;11220;48.812;9.128;2023-04-09T02:30:38;0.60;;;0.60;;
22107;SDS011;11220;48.812;9.128;2023-04-09T02:33:03;0.70;;;0.70;;
22107;SDS011;11220;48.812;9.128;2023-04-09T02:35:29;1.15;;;0.63;;
22107;SDS011;11220;48.812;9.128;2023-04-09T02:37:55;0.75;;;0.70;;
22107;SDS011;11220;48.812;9.128;2023-04-09T02:40:20;0.70;;;0.68;;
22107;SDS011;11220;48.812;9.128;2023-04-09T02:42:46;0.70;;;0.70;;
22107;SDS011;11220;48.812;9.128;2023-04-09T02:45:11;0.70;;;0.68;;
22107;SDS011;11220;48.812;9.128;2023-04-09T02:47:37;0.70;;;0.70;;
22107;SDS011;11220;48.812;9.128;2023-04-09T02:50:03;0.68;;;0.68;;
22107;SDS011;11220;48.812;9.128;2023-04-09T02:52:29;0.70;;;0.50;;
22107;SDS011;11220;48.812;9.128;2023-04-09T02:54:55;0.82;;;0.60;;
22107;SDS011;11220;48.812;9.128;2023-04-09T02:57:20;0.70;;;0.70;;
22107;SDS011;11220;48.812;9.128;2023-04-09T02:59:46;0.52;;;0.52;;
22107;SDS011;11220;48.812;9.128;2023-04-09T03:02:11;0.50;;;0.50;;
22107;SDS011;11220;48.812;9.128;2023-04-09T03:04:37;0.50;;;0.50;;
22107;SDS011;11220;48.812;9.128;2023-04-09T03:07:03;0.93;;;0.70;;
22107;SDS011;11220;48.812;9.128;2023-04-09T03:09:28;0.70;;;0.70;;
22107;SDS011;11220;48.812;9.128;2023-04-09T03:11:55;1.00;;;0.77;;
22107;SDS011;11220;48.812;9.128;2023-04-09T03:14:23;0.82;;;0.80;;
22107;SDS011;11220;48.812;9.128;2023-04-09T03:16:49;0.68;;;0.65;;
22107;SDS011;11220;48.812;9.128;2023-04-09T03:19:14;0.50;;;0.50;;
22107;SDS011;11220;48.812;9.128;2023-04-09T03:21:40;0.50;;;0.50;;
22107;SDS011;11220;48.812;9.128;2023-04-09T03:24:06;0.73;;;0.70;;
22107;SDS011;11220;48.812;9.128;2023-04-09T03:26:32;0.80;;;0.80;;
22107;SDS011;11220;48.812;9.128;2023-04-09T03:29:03;0.70;;;0.70;;
22107;SDS011;11220;48.812;9.128;2023-04-09T03:31:29;0.80;;;0.80;;
22107;SDS011;11220;48.812;9.128;2023-04-09T03:33:55;0.57;;;0.57;;
22107;SDS011;11220;48.812;9.128;2023-04-09T03:36:21;0.70;;;0.70;;
22107;SDS011;11220;48.812;9.128;2023-04-09T03:38:46;0.80;;;0.57;;
22107;SDS011;11220;48.812;9.128;2023-04-09T03:41:12;0.60;;;0.60;;
22107;SDS011;11220;48.812;9.128;2023-04-09T03:43:38;0.60;;;0.60;;
22107;SDS011;11220;48.812;9.128;2023-04-09T03:46:13;0.80;;;0.70;;
22107;SDS011;11220;48.812;9.128;2023-04-09T03:48:39;0.50;;;0.40;;
22107;SDS011;11220;48.812;9.128;2023-04-09T03:51:05;0.80;;;0.70;;
22107;SDS011;11220;48.812;9.128;2023-04-09T03:53:31;0.60;;;0.57;;
22107;SDS011;11220;48.812;9.128;2023-04-09T03:55:56;1.00;;;0.77;;
22107;SDS011;11220;48.812;9.128;2023-04-09T03:58:22;0.60;;;0.60;;
22107;SDS011;11220;48.812;9.128;2023-04-09T04:00:47;0.82;;;0.57;;
22107;SDS011;11220;48.812;9.128;2023-04-09T04:03:13;0.43;;;0.43;;
22107;SDS011;11220;48.812;9.128;2023-04-09T04:05:40;0.88;;;0.88;;
22107;SDS011;11220;48.812;9.128;2023-04-09T04:08:06;0.70;;;0.60;;
22107;SDS011;11220;48.812;9.128;2023-04-09T04:10:32;0.40;;;0.40;;
22107;SDS011;11220;48.812;9.128;2023-04-09T04:12:58;0.60;;;0.60;;
22107;SDS011;11220;48.812;9.128;2023-04-09T04:15:24;0.43;;;0.40;;
22107;SDS011;11220;48.812;9.128;2023-04-09T04:17:49;0.55;;;0.55;;
22107;SDS011;11220;48.812;9.128;2023-04-09T04:20:15;0.57;;;0.57;;
22107;SDS011;11220;48.812;9.128;2023-04-09T04:22:41;0.57;;;0.57;;
22107;SDS011;11220;48.812;9.128;2023-04-09T04:25:06;0.50;;;0.50;;
22107;SDS011;11220;48.812;9.128;2023-04-09T04:27:32;0.60;;;0.60;;
22107;SDS011;11220;48.812;9.128;2023-04-09T04:29:57;0.60;;;0.60;;
22107;SDS011;11220;48.812;9.128;2023-04-09T04:32:24;0.50;;;0.50;;
22107;SDS011;11220;48.812;9.128;2023-04-09T04:34:50;0.70;;;0.70;;
22107;SDS011;11220;48.812;9.128;2023-04-09T04:37:15;0.70;;;0.70;;
22107;SDS011;11220;48.812;9.128;2023-04-09T04:39:41;0.60;;;0.60;;
22107;SDS011;11220;48.812;9.128;2023-04-09T04:42:06;0.73;;;0.70;;
22107;SDS011;11220;48.812;9.128;2023-04-09T04:44:32;0.73;;;0.70;;
22107;SDS011;11220;48.812;9.128;2023-04-09T04:46:57;0.70;;;0.70;;
22107;SDS011;11220;48.812;9.128;2023-04-09T04:49:23;0.73;;;0.60;;
22107;SDS011;11220;48.812;9.128;2023-04-09T04:51:48;0.60;;;0.60;;
22107;SDS011;11220;48.812;9.128;2023-04-09T04:54:14;0.60;;;0.60;;
22107;SDS011;11220;48.812;9.128;2023-04-09T04:56:39;0.80;;;0.80;;
22107;SDS011;11220;48.812;9.128;2023-04-09T04:59:05;0.77;;;0.55;;
22107;SDS011;11220;48.812;9.128;2023-04-09T05:01:30;0.47;;;0.47;;
22107;SDS011;11220;48.812;9.128;2023-04-09T05:03:56;0.52;;;0.52;;
22107;SDS011;11220;48.812;9.128;2023-04-09T05:06:21;0.47;;;0.43;;
22107;SDS011;11220;48.812;9.128;2023-04-09T05:08:47;0.50;;;0.50;;
22107;SDS011;11220;48.812;9.128;2023-04-09T05:11:12;0.85;;;0.60;;
22107;SDS011;11220;48.812;9.128;2023-04-09T05:13:40;0.63;;;0.45;;
22107;SDS011;11220;48.812;9.128;2023-04-09T05:16:05;0.43;;;0.40;;
22107;SDS011;11220;48.812;9.128;2023-04-09T05:18:31;0.70;;;0.70;;
22107;SDS011;11220;48.812;9.128;2023-04-09T05:20:57;0.65;;;0.60;;
22107;SDS011;11220;48.812;9.128;2023-04-09T05:23:22;0.60;;;0.60;;
22107;SDS011;11220;48.812;9.128;2023-04-09T05:25:48;0.60;;;0.60;;
22107;SDS011;11220;48.812;9.128;2023-04-09T05:28:14;0.63;;;0.63;;
22107;SDS011;11220;48.812;9.128;2023-04-09T05:30:40;0.50;;;0.50;;
22107;SDS011;11220;48.812;9.128;2023-04-09T05:33:10;0.65;;;0.60;;
22107;SDS011;11220;48.812;9.128;2023-04-09T05:35:38;0.45;;;0.45;;
22107;SDS011;11220;48.812;9.128;2023-04-09T05:38:04;0.50;;;0.50;;
22107;SDS011;11220;48.812;9.128;2023-04-09T05:40:30;0.52;;;0.50;;
22107;SDS011;11220;48.812;9.128;2023-04-09T05:42:55;0.60;;;0.60;;
22107;SDS011;11220;48.812;9.128;2023-04-09T05:45:21;0.68;;;0.60;;
22107;SDS011;11220;48.812;9.128;2023-04-09T05:47:46;0.60;;;0.60;;
22107;SDS011;11220;48.812;9.128;2023-04-09T05:50:12;0.60;;;0.60;;
22107;SDS011;11220;48.812;9.128;2023-04-09T05:52:37;0.50;;;0.43;;
22107;SDS011;11220;48.812;9.128;2023-04-09T05:55:03;0.60;;;0.60;;
22107;SDS011;11220;48.812;9.128;2023-04-09T05:57:30;0.50;;;0.40;;
22107;SDS011;11220;48.812;9.128;2023-04-09T05:59:56;0.40;;;0.40;;
22107;SDS011;11220;48.812;9.128;2023-04-09T06:02:22;0.47;;;0.47;;
22107;SDS011;11220;48.812;9.128;2023-04-09T06:04:49;0.55;;;0.55;;
22107;SDS011;11220;48.812;9.128;2023-04-09T06:07:14;0.40;;;0.40;;
22107;SDS011;11220;48.812;9.128;2023-04-09T06:09:40;0.40;;;0.40;;
22107;SDS011;11220;48.812;9.128;2023-04-09T06:12:08;0.50;;;0.50;;
22107;SDS011;11220;48.812;9.128;2023-04-09T06:14:33;0.50;;;0.50;;
22107;SDS011;11220;48.812;9.128;2023-04-09T06:16:59;0.50;;;0.50;;
22107;SDS011;11220;48.812;9.128;2023-04-09T06:19:25;0.40;;;0.40;;
22107;SDS011;11220;48.812;9.128;2023-04-09T06:21:50;0.70;;;0.60;;
22107;SDS011;11220;48.812;9.128;2023-04-09T06:24:16;0.40;;;0.40;;
22107;SDS011;11220;48.812;9.128;2023-04-09T06:26:41;0.47;;;0.47;;
22107;SDS011;11220;48.812;9.128;2023-04-09T06:29:07;0.68;;;0.50;;
22107;SDS011;11220;48.812;9.128;2023-04-09T06:31:32;0.38;;;0.38;;
22107;SDS011;11220;48.812;9.128;2023-04-09T06:33:58;0.50;;;0.50;;
22107;SDS011;11220;48.812;9.128;2023-04-09T06:36:24;0.75;;;0.50;;
22107;SDS011;11220;48.812;9.128;2023-04-09T06:38:51;0.60;;;0.60;;
22107;SDS011;11220;48.812;9.128;2023-04-09T06:41:19;0.60;;;0.60;;
22107;SDS011;11220;48.812;9.128;2023-04-09T06:43:45;0.43;;;0.43;;
22107;SDS011;11220;48.812;9.128;2023-04-09T06:46:10;0.50;;;0.50;;
22107;SDS011;11220;48.812;9.128;2023-04-09T06:48:37;0.50;;;0.50;;
22107;SDS011;11220;48.812;9.128;2023-04-09T06:51:03;0.60;;;0.60;;
22107;SDS011;11220;48.812;9.128;2023-04-09T06:53:30;0.65;;;0.60;;
22107;SDS011;11220;48.812;9.128;2023-04-09T06:55:55;0.60;;;0.60;;
22107;SDS011;11220;48.812;9.128;2023-04-09T06:58:21;0.60;;;0.60;;
22107;SDS011;11220;48.812;9.128;2023-04-09T07:00:46;0.50;;;0.50;;
22107;SDS011;11220;48.812;9.128;2023-04-09T07:03:13;1.23;;;0.60;;
22107;SDS011;11220;48.812;9.128;2023-04-09T07:05:38;0.60;;;0.60;;
22107;SDS011;11220;48.812;9.128;2023-04-09T07:08:04;0.50;;;0.50;;
22107;SDS011;11220;48.812;9.128;2023-04-09T07:10:29;0.50;;;0.50;;
22107;SDS011;11220;48.812;9.128;2023-04-09T07:12:55;0.70;;;0.70;;
22107;SDS011;11220;48.812;9.128;2023-04-09T07:15:20;0.63;;;0.63;;
22107;SDS011;11220;48.812;9.128;2023-04-09T07:17:46;0.82;;;0.63;;
22107;SDS011;11220;48.812;9.128;2023-04-09T07:20:11;0.50;;;0.50;;
22107;SDS011;11220;48.812;9.128;2023-04-09T07:22:37;0.77;;;0.65;;
22107;SDS011;11220;48.812;9.128;2023-04-09T07:25:03;0.70;;;0.63;;
22107;SDS011;11220;48.812;9.128;2023-04-09T07:27:29;0.63;;;0.63;;
22107;SDS011;11220;48.812;9.128;2023-04-09T07:29:55;0.50;;;0.50;;
22107;SDS011;11220;48.812;9.128;2023-04-09T07:32:22;0.82;;;0.73;;
22107;SDS011;11220;48.812;9.128;2023-04-09T07:34:49;0.60;;;0.60;;
22107;SDS011;11220;48.812;9.128;2023-04-09T07:37:16;0.70;;;0.68;;
22107;SDS011;11220;48.812;9.128;2023-04-09T07:39:41;0.93;;;0.63;;
22107;SDS011;11220;48.812;9.128;2023-04-09T07:42:07;0.55;;;0.50;;
22107;SDS011;11220;48.812;9.128;2023-04-09T07:44:36;0.65;;;0.60;;
22107;SDS011;11220;48.812;9.128;2023-04-09T07:47:02;0.50;;;0.50;;
22107;SDS011;11220;48.812;9.128;2023-04-09T07:49:28;0.50;;;0.50;;
22107;SDS011;11220;48.812;9.128;2023-04-09T07:51:54;0.63;;;0.60;;
22107;SDS011;11220;48.812;9.128;2023-04-09T07:54:20;0.50;;;0.50;;
22107;SDS011;11220;48.812;9.128;2023-04-09T07:56:46;0.50;;;0.50;;
22107;SDS011;11220;48.812;9.128;2023-04-09T07:59:12;0.50;;;0.50;;
22107;SDS011;11220;48.812;9.128;2023-04-09T08:01:39;1.15;;;0.65;;
22107;SDS011;11220;48.812;9.128;2023-04-09T08:04:05;0.65;;;0.60;;
22107;SDS011;11220;48.812;9.128;2023-04-09T08:06:31;0.50;;;0.50;;
22107;SDS011;11220;48.812;9.128;2023-04-09T08:08:56;0.73;;;0.70;;
22107;SDS011;11220;48.812;9.128;2023-04-09T08:11:22;1.08;;;0.80;;
22107;SDS011;11220;48.812;9.128;2023-04-09T08:13:50;0.73;;;0.60;;
22107;SDS011;11220;48.812;9.128;2023-04-09T08:16:16;1.10;;;0.70;;
22107;SDS011;11220;48.812;9.128;2023-04-09T08:18:42;0.75;;;0.73;;
22107;SDS011;11220;48.812;9.128;2023-04-09T08:21:08;1.08;;;0.80;;
22107;SDS011;11220;48.812;9.128;2023-04-09T08:23:33;0.77;;;0.73;;
22107;SDS011;11220;48.812;9.128;2023-04-09T08:25:59;1.08;;;0.80;;
22107;SDS011;11220;48.812;9.128;2023-04-09T08:28:24;1.05;;;0.82;;
22107;SDS011;11220;48.812;9.128;2023-04-09T08:30:50;1.00;;;0.80;;
22107;SDS011;11220;48.812;9.128;2023-04-09T08:33:16;1.23;;;1.00;;
22107;SDS011;11220;48.812;9.128;2023-04-09T08:35:42;0.80;;;0.75;;
22107;SDS011;11220;48.812;9.128;2023-04-09T08:38:08;0.73;;;0.63;;
22107;SDS011;11220;48.812;9.128;2023-04-09T08:40:34;0.70;;;0.70;;
22107;SDS011;11220;48.812;9.128;2023-04-09T08:43:00;1.02;;;0.88;;
22107;SDS011;11220;48.812;9.128;2023-04-09T08:45:30;0.90;;;0.70;;
22107;SDS011;11220;48.812;9.128;2023-04-09T08:47:56;0.98;;;0.73;;
22107;SDS011;11220;48.812;9.128;2023-04-09T08:50:26;0.95;;;0.73;;
22107;SDS011;11220;48.812;9.128;2023-04-09T08:52:52;0.73;;;0.70;;
22107;SDS011;11220;48.812;9.128;2023-04-09T08:55:20;0.80;;;0.52;;
22107;SDS011;11220;48.812;9.128;2023-04-09T08:57:46;0.80;;;0.70;;
22107;SDS011;11220;48.812;9.128;2023-04-09T09:00:11;0.70;;;0.70;;
22107;SDS011;11220;48.812;9.128;2023-04-09T09:02:37;1.08;;;0.90;;
22107;SDS011;11220;48.812;9.128;2023-04-09T09:05:04;1.83;;;1.00;;
22107;SDS011;11220;48.812;9.128;2023-04-09T09:07:31;0.60;;;0.60;;
22107;SDS011;11220;48.812;9.128;2023-04-09T09:09:58;0.80;;;0.70;;
22107;SDS011;11220;48.812;9.128;2023-04-09T09:15:00;0.75;;;0.65;;
22107;SDS011;11220;48.812;9.128;2023-04-09T09:17:26;0.90;;;0.77;;
22107;SDS011;11220;48.812;9.128;2023-04-09T09:19:52;0.88;;;0.70;;
22107;SDS011;11220;48.812;9.128;2023-04-09T09:22:17;0.88;;;0.88;;
22107;SDS011;11220;48.812;9.128;2023-04-09T09:30:04;0.80;;;0.73;;
22107;SDS011;11220;48.812;9.128;2023-04-09T09:32:31;1.27;;;0.70;;
22107;SDS011;11220;48.812;9.128;2023-04-09T09:35:06;0.80;;;0.70;;
22107;SDS011;11220;48.812;9.128;2023-04-09T09:37:32;1.05;;;0.77;;
22107;SDS011;11220;48.812;9.128;2023-04-09T09:39:58;0.77;;;0.73;;
22107;SDS011;11220;48.812;9.128;2023-04-09T09:42:26;1.83;;;0.98;;
22107;SDS011;11220;48.812;9.128;2023-04-09T09:44:52;0.60;;;0.60;;
22107;SDS011;11220;48.812;9.128;2023-04-09T09:47:19;1.10;;;0.60;;
22107;SDS011;11220;48.812;9.128;2023-04-09T09:49:48;1.05;;;0.80;;
22107;SDS011;11220;48.812;9.128;2023-04-09T09:52:15;0.75;;;0.65;;
22107;SDS011;11220;48.812;9.128;2023-04-09T09:54:47;0.90;;;0.60;;
22107;SDS011;11220;48.812;9.128;2023-04-09T09:57:17;0.68;;;0.68;;
22107;SDS011;11220;48.812;9.128;2023-04-09T09:59:52;0.60;;;0.60;;
22107;SDS011;11220;48.812;9.128;2023-04-09T10:02:23;0.90;;;0.65;;
22107;SDS011;11220;48.812;9.128;2023-04-09T10:04:50;0.50;;;0.50;;
22107;SDS011;11220;48.812;9.128;2023-04-09T10:07:16;0.60;;;0.60;;
22107;SDS011;11220;48.812;9.128;2023-04-09T10:09:44;0.77;;;0.70;;
22107;SDS011;11220;48.812;9.128;2023-04-09T10:12:14;0.68;;;0.50;;
22107;SDS011;11220;48.812;9.128;2023-04-09T10:14:40;0.77;;;0.70;;
22107;SDS011;11220;48.812;9.128;2023-04-09T10:17:07;0.98;;;0.70;;
22107;SDS011;11220;48.812;9.128;2023-04-09T10:19:34;0.52;;;0.50;;
22107;SDS011;11220;48.812;9.128;2023-04-09T10:22:09;0.50;;;0.50;;
22107;SDS011;11220;48.812;9.128;2023-04-09T10:24:36;0.50;;;0.50;;
22107;SDS011;11220;48.812;9.128;2023-04-09T10:27:14;0.50;;;0.40;;
22107;SDS011;11220;48.812;9.128;2023-04-09T10:29:44;0.50;;;0.50;;
22107;SDS011;11220;48.812;9.128;2023-04-09T10:32:11;1.00;;;0.73;;
22107;SDS011;11220;48.812;9.128;2023-04-09T10:34:38;0.63;;;0.63;;
22107;SDS011;11220;48.812;9.128;2023-04-09T10:37:08;0.75;;;0.70;;
22107;SDS011;11220;48.812;9.128;2023-04-09T10:39:54;0.70;;;0.70;;
22107;SDS011;11220;48.812;9.128;2023-04-09T10:42:34;0.60;;;0.60;;
22107;SDS011;11220;48.812;9.128;2023-04-09T10:45:13;0.63;;;0.55;;
22107;SDS011;11220;48.812;9.128;2023-04-09T10:47:41;0.90;;;0.70;;
22107;SDS011;11220;48.812;9.128;2023-04-09T10:50:14;0.70;;;0.43;;
22107;SDS011;11220;48.812;9.128;2023-04-09T10:52:41;0.80;;;0.50;;
22107;SDS011;11220;48.812;9.128;2023-04-09T10:55:08;0.68;;;0.60;;
22107;SDS011;11220;48.812;9.128;2023-04-09T10:57:34;0.60;;;0.60;;
22107;SDS011;11220;48.812;9.128;2023-04-09T11:00:00;1.27;;;0.68;;
22107;SDS011;11220;48.812;9.128;2023-04-09T11:07:59;0.47;;;0.35;;
22107;SDS011;11220;48.812;9.128;2023-04-09T11:10:31;0.73;;;0.60;;
22107;SDS011;11220;48.812;9.128;2023-04-09T11:12:57;0.45;;;0.40;;
22107;SDS011;11220;48.812;9.128;2023-04-09T11:15:23;0.43;;;0.32;;
22107;SDS011;11220;48.812;9.128;2023-04-09T11:17:48;0.47;;;0.43;;
22107;SDS011;11220;48.812;9.128;2023-04-09T11:20:15;0.35;;;0.35;;
22107;SDS011;11220;48.812;9.128;2023-04-09T11:22:44;0.70;;;0.50;;
22107;SDS011;11220;48.812;9.128;2023-04-09T11:25:09;0.35;;;0.35;;
22107;SDS011;11220;48.812;9.128;2023-04-09T11:27:45;0.45;;;0.45;;
22107;SDS011;11220;48.812;9.128;2023-04-09T11:30:11;0.52;;;0.40;;
22107;SDS011;11220;48.812;9.128;2023-04-09T11:32:37;0.52;;;0.32;;
22107;SDS011;11220;48.812;9.128;2023-04-09T11:35:03;0.40;;;0.35;;
22107;SDS011;11220;48.812;9.128;2023-04-09T11:37:29;0.20;;;0.20;;
22107;SDS011;11220;48.812;9.128;2023-04-09T11:39:55;0.40;;;0.40;;
22107;SDS011;11220;48.812;9.128;2023-04-09T11:42:22;0.52;;;0.30;;
22107;SDS011;11220;48.812;9.128;2023-04-09T11:44:49;0.20;;;0.20;;
22107;SDS011;11220;48.812;9.128;2023-04-09T11:47:16;0.52;;;0.30;;
22107;SDS011;11220;48.812;9.128;2023-04-09T11:49:42;0.15;;;0.15;;
22107;SDS011;11220;48.812;9.128;2023-04-09T11:52:08;0.40;;;0.40;;
22107;SDS011;11220;48.812;9.128;2023-04-09T11:54:34;0.30;;;0.30;;
22107;SDS011;11220;48.812;9.128;2023-04-09T11:57:02;0.35;;;0.32;;
22107;SDS011;11220;48.812;9.128;2023-04-09T11:59:28;0.40;;;0.40;;
22107;SDS011;11220;48.812;9.128;2023-04-09T12:01:53;0.22;;;0.22;;
22107;SDS011;11220;48.812;9.128;2023-04-09T12:04:22;0.45;;;0.30;;
22107;SDS011;11220;48.812;9.128;2023-04-09T12:06:47;0.28;;;0.28;;
22107;SDS011;11220;48.812;9.128;2023-04-09T12:09:13;0.43;;;0.40;;
22107;SDS011;11220;48.812;9.128;2023-04-09T12:11:42;0.30;;;0.30;;
22107;SDS011;11220;48.812;9.128;2023-04-09T12:14:11;0.52;;;0.30;;
22107;SDS011;11220;48.812;9.128;2023-04-09T12:16:38;0.30;;;0.30;;
22107;SDS011;11220;48.812;9.128;2023-04-09T12:19:08;0.20;;;0.20;;
22107;SDS011;11220;48.812;9.128;2023-04-09T12:21:47;0.20;;;0.20;;
22107;SDS011;11220;48.812;9.128;2023-04-09T12:24:17;0.40;;;0.40;;
22107;SDS011;11220;48.812;9.128;2023-04-09T12:26:44;0.20;;;0.20;;
22107;SDS011;11220;48.812;9.128;2023-04-09T12:29:10;0.30;;;0.30;;
22107;SDS011;11220;48.812;9.128;2023-04-09T12:31:39;0.20;;;0.20;;
22107;SDS011;11220;48.812;9.128;2023-04-09T12:34:05;0.30;;;0.30;;
22107;SDS011;11220;48.812;9.128;2023-04-09T12:36:31;0.20;;;0.20;;
22107;SDS011;11220;48.812;9.128;2023-04-09T12:38:56;0.20;;;0.20;;
22107;SDS011;11220;48.812;9.128;2023-04-09T12:41:22;0.20;;;0.20;;
22107;SDS011;11220;48.812;9.128;2023-04-09T12:43:48;0.63;;;0.40;;
22107;SDS011;11220;48.812;9.128;2023-04-09T12:46:13;0.50;;;0.38;;
22107;SDS011;11220;48.812;9.128;2023-04-09T12:48:39;0.63;;;0.30;;
22107;SDS011;11220;48.812;9.128;2023-04-09T12:51:05;0.35;;;0.30;;
22107;SDS011;11220;48.812;9.128;2023-04-09T12:53:31;0.30;;;0.30;;
22107;SDS011;11220;48.812;9.128;2023-04-09T12:55:56;0.20;;;0.20;;
22107;SDS011;11220;48.812;9.128;2023-04-09T12:58:22;0.20;;;0.20;;
22107;SDS011;11220;48.812;9.128;2023-04-09T13:00:48;0.40;;;0.20;;
22107;SDS011;11220;48.812;9.128;2023-04-09T13:03:13;0.20;;;0.20;;
22107;SDS011;11220;48.812;9.128;2023-04-09T13:05:42;0.30;;;0.30;;
22107;SDS011;11220;48.812;9.128;2023-04-09T13:08:08;0.15;;;0.15;;
22107;SDS011;11220;48.812;9.128;2023-04-09T13:10:33;0.22;;;0.20;;
22107;SDS011;11220;48.812;9.128;2023-04-09T13:13:00;0.30;;;0.30;;
22107;SDS011;11220;48.812;9.128;2023-04-09T13:15:25;0.20;;;0.20;;
22107;SDS011;11220;48.812;9.128;2023-04-09T13:17:51;0.30;;;0.30;;
22107;SDS011;11220;48.812;9.128;2023-04-09T13:20:17;0.30;;;0.20;;
22107;SDS011;11220;48.812;9.128;2023-04-09T13:22:43;0.10;;;0.10;;
22107;SDS011;11220;48.812;9.128;2023-04-09T13:25:12;0.30;;;0.25;;
22107;SDS011;11220;48.812;9.128;2023-04-09T13:27:41;0.28;;;0.20;;
22107;SDS011;11220;48.812;9.128;2023-04-09T13:30:07;0.30;;;0.30;;
22107;SDS011;11220;48.812;9.128;2023-04-09T13:32:33;0.40;;;0.40;;
22107;SDS011;11220;48.812;9.128;2023-04-09T13:34:58;0.40;;;0.25;;
22107;SDS011;11220;48.812;9.128;2023-04-09T13:37:24;0.30;;;0.30;;
22107;SDS011;11220;48.812;9.128;2023-04-09T13:39:50;0.20;;;0.20;;
22107;SDS011;11220;48.812;9.128;2023-04-09T13:42:15;0.20;;;0.20;;
22107;SDS011;11220;48.812;9.128;2023-04-09T13:44:42;0.25;;;0.25;;
22107;SDS011;11220;48.812;9.128;2023-04-09T13:47:12;0.43;;;0.40;;
22107;SDS011;11220;48.812;9.128;2023-04-09T13:49:39;0.22;;;0.22;;
22107;SDS011;11220;48.812;9.128;2023-04-09T13:52:06;0.20;;;0.20;;
22107;SDS011;11220;48.812;9.128;2023-04-09T13:54:32;0.30;;;0.30;;
22107;SDS011;11220;48.812;9.128;2023-04-09T13:56:58;0.25;;;0.25;;
22107;SDS011;11220;48.812;9.128;2023-04-09T13:59:23;0.20;;;0.20;;
22107;SDS011;11220;48.812;9.128;2023-04-09T14:01:49;0.30;;;0.30;;
22107;SDS011;11220;48.812;9.128;2023-04-09T14:04:14;0.22;;;0.22;;
22107;SDS011;11220;48.812;9.128;2023-04-09T14:06:40;0.30;;;0.30;;
22107;SDS011;11220;48.812;9.128;2023-04-09T14:09:07;0.20;;;0.20;;
22107;SDS011;11220;48.812;9.128;2023-04-09T14:11:33;0.20;;;0.20;;
22107;SDS011;11220;48.812;9.128;2023-04-09T14:13:59;0.17;;;0.17;;
22107;SDS011;11220;48.812;9.128;2023-04-09T14:16:24;0.20;;;0.10;;
22107;SDS011;11220;48.812;9.128;2023-04-09T14:18:51;0.17;;;0.13;;
22107;SDS011;11220;48.812;9.128;2023-04-09T14:21:17;0.30;;;0.30;;
22107;SDS011;11220;48.812;9.128;2023-04-09T14:23:43;0.10;;;0.10;;
22107;SDS011;11220;48.812;9.128;2023-04-09T14:26:09;0.20;;;0.20;;
22107;SDS011;11220;48.812;9.128;2023-04-09T14:28:34;0.15;;;0.10;;
22107;SDS011;11220;48.812;9.128;2023-04-09T14:31:00;0.20;;;0.20;;
22107;SDS011;11220;48.812;9.128;2023-04-09T14:33:26;0.32;;;0.32;;
22107;SDS011;11220;48.812;9.128;2023-04-09T14:35:51;0.30;;;0.30;;
22107;SDS011;11220;48.812;9.128;2023-04-09T14:38:17;0.60;;;0.40;;
22107;SDS011;11220;48.812;9.128;2023-04-09T14:40:43;0.43;;;0.43;;
22107;SDS011;11220;48.812;9.128;2023-04-09T14:43:08;0.50;;;0.50;;
22107;SDS011;11220;48.812;9.128;2023-04-09T14:45:34;0.80;;;0.50;;
22107;SDS011;11220;48.812;9.128;2023-04-09T14:48:00;0.88;;;0.60;;
22107;SDS011;11220;48.812;9.128;2023-04-09T14:50:27;0.70;;;0.55;;
22107;SDS011;11220;48.812;9.128;2023-04-09T14:52:56;0.45;;;0.40;;
22107;SDS011;11220;48.812;9.128;2023-04-09T14:55:22;0.60;;;0.60;;
22107;SDS011;11220;48.812;9.128;2023-04-09T14:57:49;0.75;;;0.60;;
22107;SDS011;11220;48.812;9.128;2023-04-09T15:00:14;0.88;;;0.60;;
22107;SDS011;11220;48.812;9.128;2023-04-09T15:02:40;0.68;;;0.65;;
22107;SDS011;11220;48.812;9.128;2023-04-09T15:05:06;0.60;;;0.60;;
22107;SDS011;11220;48.812;9.128;2023-04-09T15:07:32;0.60;;;0.52;;